WetterOnline ( http://www.wetteronline.de )

Wetter aktuell Großer Arber

Aktuelles Wetter: Großer Arber (1446m)

6-stündlich | Neueste Meldungen
Ortszeit Temperatur Wetter
Mi, 23.01. 1:00 -8.5° C wolkig
Di, 22.01. 19:00 -8.3° C wolkenlos
Di, 22.01. 13:00 -4.9° C wolkenlos
Di, 22.01. 7:00 -10.7° C wolkenlos
Di, 22.01. 1:00 -10.4° C Nebel
Mo, 21.01. 19:00 -10.8° C wolkenlos
Mo, 21.01. 13:00 -8.1° C wolkenlos
Mo, 21.01. 7:00 -12.2° C Nebel
Ortszeit Temperatur Wetter
Mi, 23.01. 3:30 -8.3° C bedeckt
Mi, 23.01. 3:10 -8.8° C bedeckt
Mi, 23.01. 3:00 -8.4° C bewölkt
Mi, 23.01. 2:50 -8.4° C bewölkt
Mi, 23.01. 2:40 -8.2° C wolkig
Mi, 23.01. 2:30 -7.9° C wolkig
Mi, 23.01. 2:00 -8.3° C bedeckt
Mi, 23.01. 1:30 -9.0° C wolkig
Mi, 23.01. 1:00 -8.5° C wolkig
Mi, 23.01. 0:30 -7.9° C leicht bewölkt
Ortszeit Relative Feuchte Sichtweite
Mi, 23.01. 1:00 45% >70 km
Di, 22.01. 19:00 45% >70 km
Di, 22.01. 13:00 33% 40 km
Di, 22.01. 7:00 51% >70 km
Di, 22.01. 1:00 95% <100 m
Mo, 21.01. 19:00 93% 15 km
Mo, 21.01. 13:00 76% 55 km
Mo, 21.01. 7:00 93% <100 m
Ortszeit Relative Feuchte Sichtweite
Mi, 23.01. 3:30 46% >70 km
Mi, 23.01. 3:10 48% -
Mi, 23.01. 3:00 45% >70 km
Mi, 23.01. 2:50 45% -
Mi, 23.01. 2:40 43% -
Mi, 23.01. 2:30 41% >70 km
Mi, 23.01. 2:00 44% >70 km
Mi, 23.01. 1:30 55% 35 km
Mi, 23.01. 1:00 45% >70 km
Mi, 23.01. 0:30 37% >70 km
Ortszeit Niederschlagsmenge Niederschlagsart
Mi, 23.01. 1:00 0.0 l/m2 in 6 Std. -
Di, 22.01. 19:00 0.0 l/m2 in 12 Std. -
Di, 22.01. 13:00 0.0 l/m2 in 6 Std. -
Di, 22.01. 7:00 0.0 l/m2 in 12 Std. -
Di, 22.01. 1:00 0.0 l/m2 in 6 Std. -
Mo, 21.01. 19:00 0.0 l/m2 in 12 Std. -
Mo, 21.01. 13:00 0.0 l/m2 in 6 Std. -
Mo, 21.01. 7:00 0.0 l/m2 in 12 Std. -
Ortszeit Niederschlagsmenge Niederschlagsart
Mi, 23.01. 3:30 0.0 l/m2 in 1 Std. -
Mi, 23.01. 3:10 keine Meldung -
Mi, 23.01. 3:00 0.0 l/m2 in 1 Std. -
Mi, 23.01. 2:50 keine Meldung -
Mi, 23.01. 2:40 keine Meldung -
Mi, 23.01. 2:30 0.0 l/m2 in 1 Std. -
Mi, 23.01. 2:00 0.0 l/m2 in 1 Std. -
Mi, 23.01. 1:30 0.0 l/m2 in 1 Std. -
Mi, 23.01. 1:00 0.0 l/m2 in 1 Std. -
Mi, 23.01. 0:30 0.0 l/m2 in 1 Std. -
Ortszeit Stärke Spitze Richtung
km/h Bft. km/h Grad Sektor
Mi, 23.01. 1:00 22 4 28 140° SO
Di, 22.01. 19:00 14 3 25 160° S
Di, 22.01. 13:00 7 2 24 210° SW
Di, 22.01. 7:00 15 3 31 270° W
Di, 22.01. 1:00 22 4 32 210° SW
Mo, 21.01. 19:00 14 3 18 180° S
Mo, 21.01. 13:00 11 2 40 140° SO
Mo, 21.01. 7:00 11 2 14 110° O
Ortszeit Stärke Spitze Richtung
km/h Bft. km/h Grad Sektor
Mi, 23.01. 3:30 20 4 24 110° O
Mi, 23.01. 3:10 18 3 - 110° O
Mi, 23.01. 3:00 22 4 29 120° SO
Mi, 23.01. 2:50 22 4 - 120° SO
Mi, 23.01. 2:40 22 4 - 120° SO
Mi, 23.01. 2:30 22 4 29 120° SO
Mi, 23.01. 2:00 20 4 24 130° SO
Mi, 23.01. 1:30 19 3 22 140° SO
Mi, 23.01. 1:00 22 4 28 140° SO
Mi, 23.01. 0:30 24 4 28 130° SO
Ortszeit Untergrenze Bedeckung Gattung
total tief tief mittel hoch
Mi, 23.01. 1:00 7200 m 8/8 0/8 - - -
Di, 22.01. 19:00 - 0/8 0/8 - - -
Di, 22.01. 13:00 - 0/8 0/8 - - -
Di, 22.01. 7:00 - 0/8 0/8 - - -
Di, 22.01. 1:00 <30 m 8/8 0/8 - - -
Mo, 21.01. 19:00 - 0/8 0/8 - - -
Mo, 21.01. 13:00 - 0/8 0/8 - - -
Mo, 21.01. 7:00 <30 m 3/8 0/8 - - -
Ortszeit Bedeckungsgrad in Achtel und Wolkenuntergrenze
Mi, 23.01. 3:30 7(3600m) 8(4200m) 8(7800m)
Mi, 23.01. 3:10 8(3900m) 8(7500m)
Mi, 23.01. 3:00 5(4200m) 8(7200m)
Mi, 23.01. 2:50 5(4200m) 8(7200m)
Mi, 23.01. 2:40 1(4500m) 8(7200m)
Mi, 23.01. 2:30 8(7200m) 8(8100m)
Mi, 23.01. 2:00 8(6900m) 8(8100m)
Mi, 23.01. 1:30 8(7200m)
Mi, 23.01. 1:00 8(7200m)
Mi, 23.01. 0:30 5(7500m)
Ortszeit Stationsdruck (hPa) Tendenz (hPa in 3 Std.)
Mi, 23.01. 1:00 836 - 1,9
Di, 22.01. 19:00 840 - 1,7
Di, 22.01. 13:00 843 - 1,4
Di, 22.01. 7:00 846 - 1,4
Di, 22.01. 1:00 848 - 1,0
Mo, 21.01. 19:00 850 - 0,4
Mo, 21.01. 13:00 851 - 0,2
Mo, 21.01. 7:00 850 + 0,1
Ortszeit Stationsdruck (hPa) Tendenz (hPa in 3 Std.)
Mi, 23.01. 3:30 835 - 1,8
Mi, 23.01. 3:10 835 keine Meldung
Mi, 23.01. 3:00 835 - 2,0
Mi, 23.01. 2:50 835 keine Meldung
Mi, 23.01. 2:40 835 keine Meldung
Mi, 23.01. 2:30 835 - 2,0
Mi, 23.01. 2:00 836 - 1,9
Mi, 23.01. 1:30 836 - 1,9
Mi, 23.01. 1:00 836 - 1,9
Mi, 23.01. 0:30 836 - 1,9
Ortszeit Schneehöhe (cm)
Mi, 23.01. 1:00 225
Di, 22.01. 19:00 226
Di, 22.01. 13:00 227
Di, 22.01. 7:00 227
Di, 22.01. 1:00 228
Mo, 21.01. 19:00 228
Mo, 21.01. 13:00 229
Mo, 21.01. 7:00 229
Ortszeit Schneehöhe (cm)
Mi, 23.01. 3:30 225
Mi, 23.01. 3:10 225
Mi, 23.01. 3:00 225
Mi, 23.01. 2:50 225
Mi, 23.01. 2:40 225
Mi, 23.01. 2:30 225
Mi, 23.01. 2:00 225
Mi, 23.01. 1:30 225
Mi, 23.01. 1:00 225
Mi, 23.01. 0:30 225
Link zu dieser Seite / Seite empfehlen

Das Wetter in ...